Time;durP1;ratioP1;P1;durP2;ratioP2;P2;SDS_P1;SDS_P2;PMS_P1;PMS_P2;Temp;Humidity;BMP_temperature;BMP_pressure;BME280_temperature;BME280_humidity;BME280_pressure;Samples;Min_cycle;Max_cycle;Signal;HPM_P1;HPM_P2
2024/01/01 00:00:41;;;;;;;9.25;6.15;;;;;;;;;;5021534;28;20076;-45
2024/01/01 00:03:08;;;;;;;7.53;4.53;;;;;;;;;;5023246;28;20720;-50
2024/01/01 00:05:36;;;;;;;8.20;4.90;;;;;;;;;;5010831;28;20484;-51
2024/01/01 00:08:02;;;;;;;8.57;5.10;;;;;;;;;;5010769;28;20030;-45
2024/01/01 00:10:28;;;;;;;8.70;5.72;;;;;;;;;;5010645;28;20407;-47
2024/01/01 00:12:54;;;;;;;10.38;5.28;;;;;;;;;;5009372;28;20026;-50
2024/01/01 00:15:20;;;;;;;8.52;4.90;;;;;;;;;;5010456;28;20022;-53
2024/01/01 00:17:46;;;;;;;9.25;5.28;;;;;;;;;;5010570;28;20103;-50
2024/01/01 00:20:12;;;;;;;13.25;7.47;;;;;;;;;;5009070;28;20094;-47
2024/01/01 00:22:38;;;;;;;8.23;4.85;;;;;;;;;;5010267;28;20115;-48
2024/01/01 00:25:04;;;;;;;10.05;5.93;;;;;;;;;;5009055;28;20168;-53
2024/01/01 00:27:34;;;;;;;10.25;7.05;;;;;;;;;;5010299;28;20109;-49
2024/01/01 00:30:00;;;;;;;10.77;6.20;;;;;;;;;;5008752;28;20029;-49
2024/01/01 00:32:26;;;;;;;11.00;7.35;;;;;;;;;;5005116;28;20022;-48
2024/01/01 00:34:52;;;;;;;8.70;5.07;;;;;;;;;;5002926;28;20634;-53
2024/01/01 00:37:18;;;;;;;12.20;7.65;;;;;;;;;;5009040;28;20104;-52
2024/01/01 00:39:45;;;;;;;13.10;7.43;;;;;;;;;;5010324;28;20026;-48
2024/01/01 00:42:11;;;;;;;16.58;11.20;;;;;;;;;;5010095;28;20372;-49
2024/01/01 00:44:37;;;;;;;16.85;11.43;;;;;;;;;;5033359;23;20121;-58
2024/01/01 00:47:03;;;;;;;12.30;7.97;;;;;;;;;;5047218;28;20071;-58
2024/01/01 00:49:29;;;;;;;11.52;6.35;;;;;;;;;;5050215;28;20033;-60
2024/01/01 00:51:55;;;;;;;14.48;6.93;;;;;;;;;;5049295;28;20024;-59
2024/01/01 00:54:23;;;;;;;9.00;5.32;;;;;;;;;;5049680;28;20021;-59
2024/01/01 00:56:51;;;;;;;11.77;6.82;;;;;;;;;;5027726;28;20021;-58
2024/01/01 00:59:17;;;;;;;12.10;6.13;;;;;;;;;;5029830;28;20036;-60
2024/01/01 01:01:43;;;;;;;11.48;6.70;;;;;;;;;;5011640;28;20029;-60
2024/01/01 01:04:09;;;;;;;11.90;7.25;;;;;;;;;;5012579;28;20025;-60
2024/01/01 01:06:35;;;;;;;24.45;8.02;;;;;;;;;;5030656;28;20022;-61
2024/01/01 01:09:01;;;;;;;10.50;6.00;;;;;;;;;;5030119;28;20487;-59
2024/01/01 01:11:27;;;;;;;19.15;8.23;;;;;;;;;;5030295;28;20061;-59
2024/01/01 01:13:53;;;;;;;10.15;6.30;;;;;;;;;;5030411;28;20026;-60
2024/01/01 01:16:19;;;;;;;11.23;6.15;;;;;;;;;;5030026;28;20028;-54
2024/01/01 01:18:45;;;;;;;11.00;7.18;;;;;;;;;;5030071;28;20022;-59
2024/01/01 01:21:13;;;;;;;11.35;7.32;;;;;;;;;;5029668;28;20036;-60
2024/01/01 01:23:39;;;;;;;11.07;6.60;;;;;;;;;;5029940;28;20022;-60
2024/01/01 01:26:05;;;;;;;9.77;5.80;;;;;;;;;;5030022;28;20034;-59
2024/01/01 01:28:31;;;;;;;10.40;6.40;;;;;;;;;;5029852;28;20021;-61
2024/01/01 01:30:57;;;;;;;11.68;7.07;;;;;;;;;;5029460;28;20064;-61
2024/01/01 01:33:23;;;;;;;10.85;6.10;;;;;;;;;;5029783;28;20025;-61
2024/01/01 01:35:49;;;;;;;9.68;5.75;;;;;;;;;;5029865;28;20092;-60
2024/01/01 01:38:15;;;;;;;9.93;5.90;;;;;;;;;;5029624;28;20091;-58
2024/01/01 01:40:41;;;;;;;10.00;5.93;;;;;;;;;;5029537;28;20029;-56
2024/01/01 01:43:20;;;;;;;11.70;6.53;;;;;;;;;;5029424;28;20507;-60
2024/01/01 01:45:47;;;;;;;11.43;6.63;;;;;;;;;;5029559;28;20044;-59
2024/01/01 01:48:13;;;;;;;11.65;6.78;;;;;;;;;;5029839;28;20037;-59
2024/01/01 01:50:40;;;;;;;11.40;6.97;;;;;;;;;;5029566;28;20041;-60
2024/01/01 01:53:06;;;;;;;11.90;6.78;;;;;;;;;;5029633;28;20088;-59
2024/01/01 01:55:32;;;;;;;10.20;5.95;;;;;;;;;;5011677;28;20026;-59
2024/01/01 01:57:58;;;;;;;12.23;6.45;;;;;;;;;;5029614;28;20026;-57
2024/01/01 02:00:24;;;;;;;12.90;7.25;;;;;;;;;;5029527;28;20033;-60
2024/01/01 02:02:51;;;;;;;10.45;6.70;;;;;;;;;;5029425;28;20089;-59
2024/01/01 02:05:17;;;;;;;10.82;6.22;;;;;;;;;;5029584;28;20033;-59
2024/01/01 02:07:45;;;;;;;9.55;5.68;;;;;;;;;;5030171;28;20066;-52
2024/01/01 02:10:11;;;;;;;10.30;6.63;;;;;;;;;;5033117;28;20032;-59
2024/01/01 02:12:37;;;;;;;11.75;6.75;;;;;;;;;;5032762;28;20017;-57
2024/01/01 02:15:03;;;;;;;10.27;6.05;;;;;;;;;;5033079;28;20017;-61
2024/01/01 02:17:29;;;;;;;10.50;6.20;;;;;;;;;;5032867;28;20026;-59
2024/01/01 02:19:55;;;;;;;9.68;5.70;;;;;;;;;;5033022;28;20032;-60
2024/01/01 02:22:21;;;;;;;11.82;6.70;;;;;;;;;;5032642;28;20087;-59
2024/01/01 02:24:46;;;;;;;10.52;6.40;;;;;;;;;;5032380;28;20056;-59
2024/01/01 02:27:12;;;;;;;10.27;6.25;;;;;;;;;;5032823;28;20096;-58
2024/01/01 02:29:38;;;;;;;10.48;6.22;;;;;;;;;;5032887;28;20040;-54
2024/01/01 02:32:05;;;;;;;9.68;5.78;;;;;;;;;;5032479;28;20021;-60
2024/01/01 02:34:30;;;;;;;10.32;6.35;;;;;;;;;;5033098;28;20029;-60
2024/01/01 02:36:56;;;;;;;10.23;6.03;;;;;;;;;;5032706;28;20128;-59
2024/01/01 02:39:22;;;;;;;9.90;5.80;;;;;;;;;;5032658;28;20033;-61
2024/01/01 02:41:48;;;;;;;9.77;5.80;;;;;;;;;;5032499;28;20049;-60
2024/01/01 02:44:14;;;;;;;9.35;5.60;;;;;;;;;;5032599;28;20104;-59
2024/01/01 02:46:40;;;;;;;10.65;6.20;;;;;;;;;;5032352;28;20467;-61
2024/01/01 02:49:07;;;;;;;10.80;6.10;;;;;;;;;;5032552;28;20036;-60
2024/01/01 02:51:33;;;;;;;11.77;6.13;;;;;;;;;;5032222;28;20459;-59
2024/01/01 02:53:59;;;;;;;10.93;6.10;;;;;;;;;;5032273;28;20026;-61
2024/01/01 02:56:25;;;;;;;11.57;6.57;;;;;;;;;;5032336;28;20080;-59
2024/01/01 02:58:51;;;;;;;14.25;7.97;;;;;;;;;;5032519;28;20102;-59
2024/01/01 03:01:18;;;;;;;12.93;7.50;;;;;;;;;;5032456;28;20497;-61
2024/01/01 03:03:44;;;;;;;14.38;7.95;;;;;;;;;;5014629;28;20033;-60
2024/01/01 03:06:10;;;;;;;12.68;7.43;;;;;;;;;;5032365;28;20028;-60
2024/01/01 03:08:37;;;;;;;15.85;7.78;;;;;;;;;;5032604;28;20383;-59
2024/01/01 03:11:06;;;;;;;12.00;6.57;;;;;;;;;;5032365;28;20075;-60
2024/01/01 03:13:32;;;;;;;11.07;6.43;;;;;;;;;;5033152;28;20426;-62
2024/01/01 03:15:59;;;;;;;10.98;6.40;;;;;;;;;;5032883;28;20036;-59
2024/01/01 03:18:25;;;;;;;10.25;6.05;;;;;;;;;;5032804;28;20030;-59
2024/01/01 03:20:50;;;;;;;10.50;6.00;;;;;;;;;;5031345;28;20033;-58
2024/01/01 03:23:17;;;;;;;12.60;7.50;;;;;;;;;;5014508;28;20120;-56
2024/01/01 03:25:43;;;;;;;12.07;7.00;;;;;;;;;;5032042;28;20037;-58
2024/01/01 03:28:09;;;;;;;9.30;5.47;;;;;;;;;;5032373;28;20048;-58
2024/01/01 03:30:35;;;;;;;9.20;5.50;;;;;;;;;;5014417;28;20021;-58
2024/01/01 03:33:02;;;;;;;9.60;5.60;;;;;;;;;;5031742;28;20047;-59
2024/01/01 03:35:31;;;;;;;9.00;5.30;;;;;;;;;;5013947;28;20022;-60
2024/01/01 03:37:57;;;;;;;8.35;5.00;;;;;;;;;;5031918;28;20494;-58
2024/01/01 03:40:23;;;;;;;8.38;4.90;;;;;;;;;;5031693;28;20030;-57
2024/01/01 03:42:49;;;;;;;8.25;4.90;;;;;;;;;;5031361;28;20040;-59
2024/01/01 03:45:16;;;;;;;8.48;5.03;;;;;;;;;;5031290;28;20035;-59
2024/01/01 03:47:42;;;;;;;8.27;4.90;;;;;;;;;;5031116;28;20125;-59
2024/01/01 03:50:08;;;;;;;8.80;5.20;;;;;;;;;;5031136;28;20539;-60
2024/01/01 03:52:34;;;;;;;8.80;5.10;;;;;;;;;;5030909;28;20087;-59
2024/01/01 03:55:00;;;;;;;10.23;5.57;;;;;;;;;;5030779;28;20025;-59
2024/01/01 03:57:26;;;;;;;8.10;4.82;;;;;;;;;;5030619;28;20064;-60
2024/01/01 03:59:52;;;;;;;7.95;4.75;;;;;;;;;;5012884;28;20029;-60
2024/01/01 04:02:18;;;;;;;7.95;4.75;;;;;;;;;;5030290;28;20021;-58
2024/01/01 04:04:45;;;;;;;8.20;4.90;;;;;;;;;;5012496;28;20033;-59
2024/01/01 04:07:11;;;;;;;8.20;4.80;;;;;;;;;;5012670;28;20068;-60
2024/01/01 04:09:37;;;;;;;7.88;4.68;;;;;;;;;;5030347;28;20503;-58
2024/01/01 04:12:03;;;;;;;8.00;4.60;;;;;;;;;;5030441;28;20400;-58
2024/01/01 04:14:29;;;;;;;8.07;4.75;;;;;;;;;;5030377;28;20032;-58
2024/01/01 04:16:55;;;;;;;8.13;4.72;;;;;;;;;;5030208;28;20489;-60
2024/01/01 04:19:21;;;;;;;7.50;4.47;;;;;;;;;;5030129;28;20022;-61
2024/01/01 04:21:48;;;;;;;9.38;6.60;;;;;;;;;;5030001;28;20034;-59
2024/01/01 04:24:14;;;;;;;7.55;4.47;;;;;;;;;;5030061;28;20025;-60
2024/01/01 04:26:40;;;;;;;7.72;4.60;;;;;;;;;;5030134;28;20041;-58
2024/01/01 04:29:06;;;;;;;7.47;4.40;;;;;;;;;;5030085;28;20049;-60
2024/01/01 04:31:32;;;;;;;7.40;4.40;;;;;;;;;;5029576;28;20025;-59
2024/01/01 04:33:58;;;;;;;8.07;4.60;;;;;;;;;;5030145;28;20104;-58
2024/01/01 04:36:25;;;;;;;7.20;4.30;;;;;;;;;;5012282;28;20033;-61
2024/01/01 04:38:51;;;;;;;7.30;4.38;;;;;;;;;;5030182;28;20025;-60
2024/01/01 04:41:17;;;;;;;7.32;4.30;;;;;;;;;;5030101;28;20040;-58
2024/01/01 04:43:44;;;;;;;7.80;4.60;;;;;;;;;;5029854;28;20064;-60
2024/01/01 04:46:10;;;;;;;8.90;5.25;;;;;;;;;;5029365;28;20538;-57
2024/01/01 04:48:36;;;;;;;8.30;4.80;;;;;;;;;;5029603;28;20077;-59
2024/01/01 04:51:02;;;;;;;8.65;4.68;;;;;;;;;;5027275;28;20021;-60
2024/01/01 04:53:28;;;;;;;7.50;4.47;;;;;;;;;;5028472;28;20111;-60
2024/01/01 04:55:54;;;;;;;7.60;4.60;;;;;;;;;;5009290;28;20087;-60
2024/01/01 04:58:20;;;;;;;8.55;4.90;;;;;;;;;;5009499;28;20472;-58
2024/01/01 05:00:46;;;;;;;10.15;5.38;;;;;;;;;;5009270;28;20515;-56
2024/01/01 05:03:12;;;;;;;7.88;4.70;;;;;;;;;;5009466;28;20064;-59
2024/01/01 05:05:38;;;;;;;10.30;4.97;;;;;;;;;;5009177;28;20091;-60
2024/01/01 05:08:04;;;;;;;8.93;5.25;;;;;;;;;;5007961;28;20025;-60
2024/01/01 05:10:30;;;;;;;8.32;4.95;;;;;;;;;;5009119;28;20168;-60
2024/01/01 05:12:56;;;;;;;9.48;5.38;;;;;;;;;;5009079;28;20128;-58
2024/01/01 05:15:22;;;;;;;9.50;5.40;;;;;;;;;;5009072;28;20062;-58
2024/01/01 05:17:48;;;;;;;8.00;4.75;;;;;;;;;;5009290;28;20376;-59
2024/01/01 05:20:14;;;;;;;10.05;4.97;;;;;;;;;;5009120;28;20104;-58
2024/01/01 05:22:41;;;;;;;8.93;5.25;;;;;;;;;;5007393;28;20092;-59
2024/01/01 05:25:07;;;;;;;23.70;11.85;;;;;;;;;;5007690;28;20030;-60
2024/01/01 05:27:33;;;;;;;9.32;5.30;;;;;;;;;;5009220;28;20034;-59
2024/01/01 05:29:59;;;;;;;8.60;5.00;;;;;;;;;;5009042;28;20645;-59
2024/01/01 05:32:25;;;;;;;9.35;5.65;;;;;;;;;;5008778;28;20052;-61
2024/01/01 05:34:51;;;;;;;8.13;4.80;;;;;;;;;;5009087;28;20046;-59
2024/01/01 05:37:17;;;;;;;8.80;5.15;;;;;;;;;;5017577;28;20017;-61
2024/01/01 05:39:43;;;;;;;8.45;5.00;;;;;;;;;;5028415;28;20033;-59
2024/01/01 05:42:09;;;;;;;8.55;5.10;;;;;;;;;;5028969;28;20110;-58
2024/01/01 05:44:35;;;;;;;8.60;5.10;;;;;;;;;;5033203;28;20475;-55
2024/01/01 05:47:01;;;;;;;8.80;5.20;;;;;;;;;;5032956;28;20095;-60
2024/01/01 05:49:27;;;;;;;9.88;5.57;;;;;;;;;;5032882;28;20109;-60
2024/01/01 05:51:53;;;;;;;9.20;5.53;;;;;;;;;;5014943;28;20488;-58
2024/01/01 05:54:19;;;;;;;14.02;6.97;;;;;;;;;;5033275;28;20021;-59
2024/01/01 05:56:45;;;;;;;9.40;5.60;;;;;;;;;;5032829;28;20071;-60
2024/01/01 05:59:11;;;;;;;9.68;5.65;;;;;;;;;;5015260;28;20492;-59
2024/01/01 06:01:37;;;;;;;9.65;5.70;;;;;;;;;;5014948;28;20029;-59
2024/01/01 06:04:03;;;;;;;10.63;6.68;;;;;;;;;;5015027;28;20026;-57
2024/01/01 06:06:29;;;;;;;9.57;5.43;;;;;;;;;;5032454;28;20030;-59
2024/01/01 06:08:55;;;;;;;11.00;5.72;;;;;;;;;;5032538;28;20037;-59
2024/01/01 06:11:21;;;;;;;9.38;5.57;;;;;;;;;;5032156;28;20052;-60
2024/01/01 06:13:47;;;;;;;9.20;5.43;;;;;;;;;;5032330;28;20025;-59
2024/01/01 06:16:14;;;;;;;9.07;5.38;;;;;;;;;;5032224;28;20018;-60
2024/01/01 06:18:40;;;;;;;11.25;5.85;;;;;;;;;;5032378;28;20024;-59
2024/01/01 06:21:06;;;;;;;9.30;5.50;;;;;;;;;;5031948;28;20025;-59
2024/01/01 06:23:32;;;;;;;11.50;6.28;;;;;;;;;;5032694;28;20022;-59
2024/01/01 06:25:58;;;;;;;9.70;5.65;;;;;;;;;;5032332;28;20032;-60
2024/01/01 06:28:26;;;;;;;10.32;5.95;;;;;;;;;;5031927;28;20033;-60
2024/01/01 06:30:52;;;;;;;10.27;6.10;;;;;;;;;;5014005;28;20395;-59
2024/01/01 06:33:18;;;;;;;9.60;5.70;;;;;;;;;;5014122;28;20033;-60
2024/01/01 06:35:44;;;;;;;9.52;5.60;;;;;;;;;;5014286;28;20025;-60
2024/01/01 06:38:11;;;;;;;16.58;6.90;;;;;;;;;;5031546;28;20075;-60
2024/01/01 06:40:37;;;;;;;9.77;5.72;;;;;;;;;;5031874;28;20022;-60
2024/01/01 06:43:03;;;;;;;9.73;5.70;;;;;;;;;;5031395;28;20030;-58
2024/01/01 06:45:29;;;;;;;10.13;5.85;;;;;;;;;;5032141;28;20079;-61
2024/01/01 06:47:55;;;;;;;11.48;6.68;;;;;;;;;;5031672;28;20108;-60
2024/01/01 06:50:21;;;;;;;10.00;5.90;;;;;;;;;;5031768;28;20037;-58
2024/01/01 06:52:47;;;;;;;9.63;5.70;;;;;;;;;;5031807;28;20096;-54
2024/01/01 06:55:16;;;;;;;9.70;5.70;;;;;;;;;;5026511;28;20025;-59
2024/01/01 06:57:42;;;;;;;10.60;6.70;;;;;;;;;;5027404;28;20082;-57
2024/01/01 07:00:08;;;;;;;10.43;6.07;;;;;;;;;;5013640;28;20033;-60
2024/01/01 07:02:34;;;;;;;13.40;6.28;;;;;;;;;;5031253;28;20039;-60
2024/01/01 07:05:01;;;;;;;10.13;6.15;;;;;;;;;;5031109;28;20021;-59
2024/01/01 07:07:27;;;;;;;9.75;5.75;;;;;;;;;;5023819;28;20026;-60
2024/01/01 07:09:53;;;;;;;10.25;5.90;;;;;;;;;;5023299;28;20021;-59
2024/01/01 07:12:23;;;;;;;10.45;6.15;;;;;;;;;;5031520;28;20052;-58
2024/01/01 07:14:50;;;;;;;10.30;5.95;;;;;;;;;;5027806;28;20084;-58
2024/01/01 07:17:16;;;;;;;10.10;6.00;;;;;;;;;;5031215;28;20021;-62
2024/01/01 07:19:42;;;;;;;9.75;5.72;;;;;;;;;;5028488;28;20025;-59
2024/01/01 07:22:09;;;;;;;10.77;5.90;;;;;;;;;;5016404;28;20105;-60
2024/01/01 07:24:35;;;;;;;10.93;6.70;;;;;;;;;;5022931;28;20045;-58
2024/01/01 07:27:01;;;;;;;10.32;5.75;;;;;;;;;;5010735;28;20112;-59
2024/01/01 07:29:30;;;;;;;10.25;6.03;;;;;;;;;;5010706;28;20041;-59
2024/01/01 07:31:56;;;;;;;9.70;5.70;;;;;;;;;;5014335;28;20048;-59
2024/01/01 07:34:22;;;;;;;9.75;5.78;;;;;;;;;;5022657;28;20053;-61
2024/01/01 07:36:51;;;;;;;20.05;6.88;;;;;;;;;;5010549;28;20038;-60
2024/01/01 07:39:20;;;;;;;11.40;6.00;;;;;;;;;;5010768;28;20097;-60
2024/01/01 07:41:46;;;;;;;10.80;5.90;;;;;;;;;;5026570;28;20025;-59
2024/01/01 07:44:12;;;;;;;9.73;5.75;;;;;;;;;;5010627;28;20096;-59
2024/01/01 07:46:39;;;;;;;10.02;5.85;;;;;;;;;;5010170;28;20037;-60
2024/01/01 07:49:06;;;;;;;9.50;5.60;;;;;;;;;;5014645;28;20104;-58
2024/01/01 07:51:32;;;;;;;9.50;5.60;;;;;;;;;;5008598;28;20116;-61
2024/01/01 07:53:58;;;;;;;9.88;5.68;;;;;;;;;;5010394;28;20040;-60
2024/01/01 07:56:24;;;;;;;11.10;6.55;;;;;;;;;;5010245;28;20140;-61
2024/01/01 07:58:52;;;;;;;9.70;5.78;;;;;;;;;;5010367;28;20578;-60
2024/01/01 08:01:18;;;;;;;9.90;5.80;;;;;;;;;;5025794;28;20022;-60
2024/01/01 08:03:44;;;;;;;10.35;5.65;;;;;;;;;;5010947;28;20153;-60
2024/01/01 08:06:10;;;;;;;9.85;5.75;;;;;;;;;;5005656;28;20108;-60
2024/01/01 08:08:36;;;;;;;10.23;6.07;;;;;;;;;;5021687;28;20041;-59
2024/01/01 08:11:02;;;;;;;9.82;5.60;;;;;;;;;;5029973;28;20505;-61
2024/01/01 08:13:28;;;;;;;9.70;5.60;;;;;;;;;;5029787;28;20104;-59
2024/01/01 08:15:54;;;;;;;9.88;5.72;;;;;;;;;;5029740;28;20065;-60
2024/01/01 08:18:20;;;;;;;10.57;6.05;;;;;;;;;;5012042;28;20049;-60
2024/01/01 08:20:46;;;;;;;9.23;5.50;;;;;;;;;;5029776;28;20029;-61
2024/01/01 08:23:12;;;;;;;10.90;6.25;;;;;;;;;;5030094;28;20025;-59
2024/01/01 08:25:39;;;;;;;16.33;6.97;;;;;;;;;;5029968;28;20030;-55
2024/01/01 08:28:05;;;;;;;13.48;7.03;;;;;;;;;;5030132;28;20031;-59
2024/01/01 08:30:31;;;;;;;11.98;8.25;;;;;;;;;;5029731;28;20456;-57
2024/01/01 08:32:58;;;;;;;15.90;6.60;;;;;;;;;;5029532;28;20018;-59
2024/01/01 08:35:24;;;;;;;13.00;7.38;;;;;;;;;;5029683;28;20090;-59
2024/01/01 08:37:50;;;;;;;11.90;6.93;;;;;;;;;;5029824;28;20021;-58
2024/01/01 08:40:16;;;;;;;11.45;6.68;;;;;;;;;;5029726;28;20029;-59
2024/01/01 08:42:42;;;;;;;10.60;6.22;;;;;;;;;;5029580;28;20057;-58
2024/01/01 08:45:09;;;;;;;9.95;5.82;;;;;;;;;;5029375;28;20108;-57
2024/01/01 08:47:35;;;;;;;13.80;7.30;;;;;;;;;;5029513;28;20021;-57
2024/01/01 08:50:01;;;;;;;9.50;5.60;;;;;;;;;;5025386;28;20080;-55
2024/01/01 08:52:27;;;;;;;10.23;6.00;;;;;;;;;;5009110;28;20032;-56
2024/01/01 08:54:53;;;;;;;11.27;6.20;;;;;;;;;;5009358;28;20109;-49
2024/01/01 08:57:19;;;;;;;10.02;5.72;;;;;;;;;;5009233;28;20022;-51
2024/01/01 08:59:45;;;;;;;11.57;6.30;;;;;;;;;;5009226;28;20030;-52
2024/01/01 09:02:11;;;;;;;9.88;5.70;;;;;;;;;;5007911;28;20033;-50
2024/01/01 09:04:37;;;;;;;9.13;5.40;;;;;;;;;;5009060;28;20022;-50
2024/01/01 09:07:04;;;;;;;10.23;5.97;;;;;;;;;;5009055;28;20044;-52
2024/01/01 09:09:30;;;;;;;9.57;5.60;;;;;;;;;;5009025;28;20026;-53
2024/01/01 09:11:57;;;;;;;9.93;5.72;;;;;;;;;;5008841;28;20112;-51
2024/01/01 09:14:23;;;;;;;8.90;5.20;;;;;;;;;;5009011;28;20026;-54
2024/01/01 09:16:50;;;;;;;9.23;5.40;;;;;;;;;;5013415;28;20025;-53
2024/01/01 09:19:16;;;;;;;9.20;5.30;;;;;;;;;;5028319;28;20097;-53
2024/01/01 09:21:42;;;;;;;11.10;5.50;;;;;;;;;;5028517;28;20046;-57
2024/01/01 09:24:09;;;;;;;9.23;5.40;;;;;;;;;;5028711;28;20415;-54
2024/01/01 09:26:35;;;;;;;8.65;5.10;;;;;;;;;;5028514;28;20060;-51
2024/01/01 09:29:01;;;;;;;10.23;6.03;;;;;;;;;;5028573;28;20033;-53
2024/01/01 09:31:27;;;;;;;13.43;5.93;;;;;;;;;;5028303;28;20480;-53
2024/01/01 09:34:00;;;;;;;9.23;5.45;;;;;;;;;;5028533;28;20033;-54
2024/01/01 09:36:26;;;;;;;10.75;6.45;;;;;;;;;;5025406;28;20029;-56
2024/01/01 09:38:52;;;;;;;9.32;5.50;;;;;;;;;;5028471;28;20076;-51
2024/01/01 09:41:18;;;;;;;9.30;5.57;;;;;;;;;;5027661;28;20069;-54
2024/01/01 09:43:44;;;;;;;9.57;5.70;;;;;;;;;;5018689;28;20033;-56
2024/01/01 09:46:13;;;;;;;9.70;5.72;;;;;;;;;;5013818;28;20433;-56
2024/01/01 09:48:39;;;;;;;10.48;6.13;;;;;;;;;;5008524;28;20113;-56
2024/01/01 09:51:06;;;;;;;9.27;5.47;;;;;;;;;;5008174;28;20029;-56
2024/01/01 09:53:32;;;;;;;13.98;6.45;;;;;;;;;;5008330;28;20028;-55
2024/01/01 09:55:58;;;;;;;9.00;5.30;;;;;;;;;;5008395;28;20026;-55
2024/01/01 09:58:24;;;;;;;9.30;5.35;;;;;;;;;;5017122;28;20025;-52
2024/01/01 10:00:50;;;;;;;9.68;5.70;;;;;;;;;;5006968;28;20037;-55
2024/01/01 10:03:16;;;;;;;9.60;5.57;;;;;;;;;;5008443;28;20052;-56
2024/01/01 10:05:43;;;;;;;12.55;7.55;;;;;;;;;;5008142;28;20524;-58
2024/01/01 10:08:09;;;;;;;13.95;7.25;;;;;;;;;;5008390;28;20030;-54
2024/01/01 10:10:37;;;;;;;10.95;5.63;;;;;;;;;;5008085;28;20037;-52
2024/01/01 10:13:09;;;;;;;9.02;5.32;;;;;;;;;;5008014;28;20092;-54
2024/01/01 10:15:39;;;;;;;9.10;5.40;;;;;;;;;;5008061;28;20030;-53
2024/01/01 10:18:16;;;;;;;9.60;5.53;;;;;;;;;;5016257;28;20016;-51
2024/01/01 10:20:45;;;;;;;10.10;6.00;;;;;;;;;;5007909;28;20032;-54
2024/01/01 10:23:20;;;;;;;9.80;6.03;;;;;;;;;;5016768;28;20456;-54
2024/01/01 10:25:46;;;;;;;10.55;6.65;;;;;;;;;;5027228;28;20026;-53
2024/01/01 10:28:13;;;;;;;9.27;5.47;;;;;;;;;;5028058;28;20033;-53
2024/01/01 10:30:41;;;;;;;11.37;6.17;;;;;;;;;;5031630;28;20061;-54
2024/01/01 10:33:07;;;;;;;9.47;5.60;;;;;;;;;;5031686;28;20116;-53
2024/01/01 10:35:33;;;;;;;10.02;5.90;;;;;;;;;;5031465;28;20268;-56
2024/01/01 10:38:01;;;;;;;10.40;5.82;;;;;;;;;;5031433;28;20021;-55
2024/01/01 10:40:27;;;;;;;12.10;6.45;;;;;;;;;;5031580;28;20076;-58
2024/01/01 10:42:54;;;;;;;9.75;5.80;;;;;;;;;;5031082;28;20029;-55
2024/01/01 10:45:20;;;;;;;12.35;6.55;;;;;;;;;;5031117;28;20033;-53
2024/01/01 10:47:48;;;;;;;17.10;7.88;;;;;;;;;;5031291;28;20033;-53
2024/01/01 10:50:27;;;;;;;9.25;5.50;;;;;;;;;;5031252;28;20034;-53
2024/01/01 10:53:02;;;;;;;10.95;5.80;;;;;;;;;;5011398;28;20026;-52
2024/01/01 10:55:28;;;;;;;10.75;5.88;;;;;;;;;;5011245;28;20064;-55
2024/01/01 10:58:06;;;;;;;9.40;5.50;;;;;;;;;;5011514;28;20057;-56
2024/01/01 11:00:41;;;;;;;10.23;6.10;;;;;;;;;;5011447;28;20037;-54
2024/01/01 11:03:07;;;;;;;13.05;7.72;;;;;;;;;;5011439;28;20622;-54
2024/01/01 11:05:34;;;;;;;12.00;7.00;;;;;;;;;;5011495;28;20506;-52
2024/01/01 11:08:01;;;;;;;12.55;7.28;;;;;;;;;;5011429;28;20040;-56
2024/01/01 11:10:53;;;;;;;13.60;8.40;;;;;;;;;;5011110;28;20033;-54
2024/01/01 11:13:28;;;;;;;13.75;9.20;;;;;;;;;;5008368;28;20041;-54
2024/01/01 11:16:01;;;;;;;13.85;9.50;;;;;;;;;;5011141;28;20459;-53
2024/01/01 11:18:34;;;;;;;14.30;10.48;;;;;;;;;;5011276;28;20084;-51
2024/01/01 11:21:01;;;;;;;18.33;11.27;;;;;;;;;;5030590;28;20052;-54
2024/01/01 11:23:40;;;;;;;25.30;13.73;;;;;;;;;;5030832;28;20118;-52
2024/01/01 11:26:27;;;;;;;14.95;12.57;;;;;;;;;;5030448;28;20077;-53
2024/01/01 11:28:53;;;;;;;15.30;12.65;;;;;;;;;;5020127;28;20466;-58
2024/01/01 11:31:19;;;;;;;14.80;11.90;;;;;;;;;;5030318;28;20028;-53
2024/01/01 11:33:45;;;;;;;14.60;11.48;;;;;;;;;;5030171;28;20021;-52
2024/01/01 11:36:11;;;;;;;14.30;10.75;;;;;;;;;;5030350;28;20045;-54
2024/01/01 11:38:37;;;;;;;20.08;11.68;;;;;;;;;;5030546;28;20056;-53
2024/01/01 11:41:04;;;;;;;15.38;10.85;;;;;;;;;;5029633;28;20112;-50
2024/01/01 11:43:30;;;;;;;14.10;10.20;;;;;;;;;;5022029;28;20068;-52
2024/01/01 11:45:56;;;;;;;14.70;10.50;;;;;;;;;;5022320;28;20095;-52
2024/01/01 11:48:22;;;;;;;14.68;11.75;;;;;;;;;;5018581;28;20095;-52
2024/01/01 11:50:49;;;;;;;15.20;13.07;;;;;;;;;;5010162;28;20025;-55
2024/01/01 11:53:15;;;;;;;15.98;14.27;;;;;;;;;;4995704;28;20156;-49
2024/01/01 11:55:41;;;;;;;16.80;15.00;;;;;;;;;;5029610;28;20093;-51
2024/01/01 11:58:07;;;;;;;21.73;19.73;;;;;;;;;;5025004;28;20160;-52
2024/01/01 12:00:33;;;;;;;27.92;25.30;;;;;;;;;;5027713;28;20029;-55
2024/01/01 12:03:00;;;;;;;29.80;27.40;;;;;;;;;;5030015;28;20094;-56
2024/01/01 12:05:26;;;;;;;29.27;26.88;;;;;;;;;;5029798;28;20029;-51
2024/01/01 12:07:52;;;;;;;29.88;27.48;;;;;;;;;;5030037;28;20175;-52
2024/01/01 12:10:18;;;;;;;30.45;28.05;;;;;;;;;;5029630;28;20109;-54
2024/01/01 12:12:44;;;;;;;29.52;27.20;;;;;;;;;;5011900;28;20108;-53
2024/01/01 12:15:15;;;;;;;27.50;25.30;;;;;;;;;;5015170;28;20032;-51
2024/01/01 12:17:48;;;;;;;27.02;24.83;;;;;;;;;;5020011;28;20100;-54
2024/01/01 12:20:22;;;;;;;26.60;24.40;;;;;;;;;;5028791;28;20022;-56
2024/01/01 12:22:48;;;;;;;24.55;22.45;;;;;;;;;;5021426;28;20048;-55
2024/01/01 12:25:15;;;;;;;26.35;24.15;;;;;;;;;;5014470;28;20029;-55
2024/01/01 12:27:41;;;;;;;24.80;22.70;;;;;;;;;;5017690;28;20550;-53
2024/01/01 12:30:08;;;;;;;23.33;21.27;;;;;;;;;;5009422;28;20060;-51
2024/01/01 12:32:34;;;;;;;22.50;20.50;;;;;;;;;;5017657;28;20097;-53
2024/01/01 12:35:00;;;;;;;22.58;20.58;;;;;;;;;;5009720;28;20034;-56
2024/01/01 12:37:27;;;;;;;22.17;20.17;;;;;;;;;;5009327;28;20431;-53
2024/01/01 12:39:53;;;;;;;20.35;18.45;;;;;;;;;;5009761;28;20018;-53
2024/01/01 12:42:19;;;;;;;19.55;17.65;;;;;;;;;;5011310;28;20013;-55
2024/01/01 12:44:44;;;;;;;18.38;16.58;;;;;;;;;;5020857;28;20053;-55
2024/01/01 12:47:10;;;;;;;18.40;16.60;;;;;;;;;;5021534;28;20041;-53
2024/01/01 12:49:37;;;;;;;17.90;16.10;;;;;;;;;;5028970;28;20022;-52
2024/01/01 12:52:03;;;;;;;17.80;16.00;;;;;;;;;;5028009;28;20101;-53
2024/01/01 12:54:29;;;;;;;17.05;15.25;;;;;;;;;;5029053;28;20021;-55
2024/01/01 12:56:58;;;;;;;16.52;14.82;;;;;;;;;;5029084;28;20548;-52
2024/01/01 12:59:23;;;;;;;16.55;14.85;;;;;;;;;;5029068;28;20251;-56
2024/01/01 13:01:49;;;;;;;17.25;15.45;;;;;;;;;;5028598;28;20165;-51
2024/01/01 13:04:15;;;;;;;16.00;14.30;;;;;;;;;;5011310;28;20079;-52
2024/01/01 13:06:41;;;;;;;16.50;14.80;;;;;;;;;;5028835;28;20531;-54
2024/01/01 13:09:08;;;;;;;16.48;14.77;;;;;;;;;;5028663;28;20044;-52
2024/01/01 13:11:34;;;;;;;16.98;15.18;;;;;;;;;;5028442;28;20479;-54
2024/01/01 13:14:00;;;;;;;16.70;15.00;;;;;;;;;;5028820;28;20037;-52
2024/01/01 13:16:26;;;;;;;17.13;15.32;;;;;;;;;;5028675;28;20028;-54
2024/01/01 13:18:52;;;;;;;16.77;15.07;;;;;;;;;;5011261;28;20025;-53
2024/01/01 13:21:19;;;;;;;16.60;14.90;;;;;;;;;;5028563;28;20407;-52
2024/01/01 13:23:45;;;;;;;16.23;14.52;;;;;;;;;;5028688;28;20112;-55
2024/01/01 13:26:11;;;;;;;16.25;14.55;;;;;;;;;;5028651;28;20037;-56
2024/01/01 13:28:37;;;;;;;16.55;14.85;;;;;;;;;;5028480;28;20033;-53
2024/01/01 13:31:04;;;;;;;16.90;15.20;;;;;;;;;;5028696;28;20089;-52
2024/01/01 13:33:30;;;;;;;16.50;14.80;;;;;;;;;;5029179;28;20032;-54
2024/01/01 13:35:56;;;;;;;17.48;15.68;;;;;;;;;;5028743;28;20079;-54
2024/01/01 13:38:22;;;;;;;19.92;18.02;;;;;;;;;;5028873;28;20026;-52
2024/01/01 13:40:48;;;;;;;21.70;19.70;;;;;;;;;;5024673;28;20097;-52
2024/01/01 13:43:14;;;;;;;21.60;19.60;;;;;;;;;;5024451;28;20061;-52
2024/01/01 13:45:41;;;;;;;22.67;20.67;;;;;;;;;;5028131;28;20033;-53
2024/01/01 13:48:11;;;;;;;22.73;20.73;;;;;;;;;;5022895;28;20048;-54
2024/01/01 13:50:39;;;;;;;21.90;19.90;;;;;;;;;;5020081;28;20017;-52
2024/01/01 13:53:05;;;;;;;21.98;19.98;;;;;;;;;;5028611;28;20487;-53
2024/01/01 13:55:31;;;;;;;23.13;21.02;;;;;;;;;;5027412;28;20489;-53
2024/01/01 13:57:58;;;;;;;24.83;22.73;;;;;;;;;;5025999;28;20021;-53
2024/01/01 14:00:27;;;;;;;27.73;25.15;;;;;;;;;;5028185;28;20056;-55
2024/01/01 14:02:53;;;;;;;31.63;29.23;;;;;;;;;;5027660;28;20112;-54
2024/01/01 14:05:19;;;;;;;28.80;26.50;;;;;;;;;;5031548;28;20041;-54
2024/01/01 14:07:48;;;;;;;28.00;25.70;;;;;;;;;;5032173;28;20029;-52
2024/01/01 14:10:15;;;;;;;28.58;26.27;;;;;;;;;;5032186;28;20037;-52
2024/01/01 14:12:41;;;;;;;30.35;27.95;;;;;;;;;;5029602;28;20029;-53
2024/01/01 14:15:07;;;;;;;29.27;26.98;;;;;;;;;;5012504;28;20014;-54
2024/01/01 14:17:33;;;;;;;27.83;25.52;;;;;;;;;;5014234;28;20056;-55
2024/01/01 14:20:00;;;;;;;26.50;24.30;;;;;;;;;;5031379;28;20056;-51
2024/01/01 14:22:26;;;;;;;23.88;21.88;;;;;;;;;;5020272;28;20063;-54
2024/01/01 14:24:52;;;;;;;23.75;21.75;;;;;;;;;;5012437;28;20108;-54
2024/01/01 14:27:18;;;;;;;22.77;20.77;;;;;;;;;;5012374;28;20030;-55